Friday, October 19, 2018, 7:25 AM EDT
Back to Local

KCXY, Harrisburg Capital City

Location: New Cumberland, PA, United States Lat: 40.217
Local Time: 7:25 AM EDT (11:25 GMT) Lon: -76.85
Time Zone: US/Eastern Elev: 347 ft

Show me the last for .
Show Decoded

2018-10-19 06:56 METAR KCXY 191056Z 25004KT 10SM CLR 03/00 A3035 RMK AO2 SLP279 T00280000 =
2018-10-19 05:56 METAR KCXY 190956Z AUTO 26003KT 10SM CLR 03/M01 A3035 RMK AO2 SLP279 T00281006 =
2018-10-19 04:56 METAR KCXY 190856Z AUTO 23004KT 10SM CLR 02/M01 A3035 RMK AO2 SLP279 T00221006
                 58004 =
2018-10-19 03:56 METAR KCXY 190756Z AUTO 00000KT 10SM CLR 02/00 A3035 RMK AO2 SLP279 T00220000 =
2018-10-19 02:56 METAR KCXY 190656Z AUTO 00000KT 10SM CLR 03/01 A3036 RMK AO2 SLP284 T00280006 =
2018-10-19 01:56 METAR KCXY 190556Z AUTO 00000KT 10SM CLR 04/01 A3036 RMK AO2 SLP283 T00390006
                 10078 20028 56006 =
2018-10-19 00:56 METAR KCXY 190456Z AUTO 00000KT 10SM CLR 04/01 A3036 RMK AO2 SLP285 T00390011
                 401280033 =
2018-10-18 23:56 METAR KCXY 190356Z AUTO 21003KT 10SM CLR 04/01 A3037 RMK AO2 SLP288 T00390011 =
2018-10-18 22:56 METAR KCXY 190256Z AUTO 00000KT 10SM CLR 05/01 A3038 RMK AO2 SLP290 T00500011
                 53001 =
2018-10-18 21:56 METAR KCXY 190156Z AUTO 24006KT 10SM CLR 06/01 A3037 RMK AO2 SLP288 T00610006 =
2018-10-18 20:56 METAR KCXY 190056Z 25004KT 10SM CLR 06/01 A3037 RMK AO2 SLP287 T00610011 =
2018-10-18 19:56 METAR KCXY 182356Z 27004KT 10SM CLR 07/01 A3037 RMK AO2 SLP288 T00670011 10128
                 20067 51001 =
2018-10-18 18:56 METAR KCXY 182256Z 30005KT 10SM CLR 09/M01 A3037 RMK AO2 SLP287 T00941011 =
2018-10-18 17:56 METAR KCXY 182156Z 30008KT 10SM CLR 11/M03 A3037 RMK AO2 SLP287 T01111028 =
2018-10-18 16:56 METAR KCXY 182056Z 29011KT 10SM CLR 12/M03 A3037 RMK AO2 SLP286 T01221033 56012
                 =
2018-10-18 15:56 METAR KCXY 181956Z 32011G15KT 10SM CLR 13/M03 A3038 RMK AO2 SLP289 T01281033 =
2018-10-18 14:56 METAR KCXY 181856Z 28008KT 10SM FEW065 12/M03 A3039 RMK AO2 SLP293 T01171028 =
2018-10-18 13:56 METAR KCXY 181756Z 29009G17KT 10SM CLR 11/M04 A3040 RMK AO2 SLP298 T01111039
                 10117 20078 58009 =
2018-10-18 12:56 METAR KCXY 181656Z 36006KT 10SM FEW050 11/M03 A3042 RMK AO2 SLP303 T01061033 =
2018-10-18 11:56 METAR KCXY 181556Z 34007KT 300V010 10SM FEW050 09/M04 A3043 RMK AO2 SLP308
                 T00941044 =
2018-10-18 10:56 METAR KCXY 181456Z 34009G16KT 10SM SCT061 09/M06 A3043 RMK AO2 SLP307 T00891056
                 51021 =
2018-10-18 09:56 METAR KCXY 181356Z 31010G16KT 290V360 10SM SCT050 09/M04 A3042 RMK AO2 SLP304
                 T00891044 =
2018-10-18 08:56 METAR KCXY 181256Z 34015G21KT 10SM SCT050 08/M04 A3040 RMK AO2 SLP296 T00831039
                 =
2018-10-18 07:56 METAR KCXY 181156Z 32012G18KT 10SM BKN050 08/M03 A3037 RMK AO2 SLP285 T00781028
                 10089 20061 53018 =

Support USWX by starting your Amazon purchase here.